sensor_id;sensor_type;location;lat;lon;timestamp;pressure;altitude;pressure_sealevel;temperature;humidity
69318;BME280;56457;52.190;4.440;2023-05-03T00:00:35;103097.72;;;6.66;100.00
69318;BME280;56457;52.190;4.440;2023-05-03T00:01:36;103088.13;;;6.65;100.00
69318;BME280;56457;52.190;4.440;2023-05-03T00:02:36;103089.84;;;6.65;100.00
69318;BME280;56457;52.190;4.440;2023-05-03T00:03:43;103095.06;;;6.65;100.00
69318;BME280;56457;52.190;4.440;2023-05-03T00:04:44;103089.06;;;6.67;100.00
69318;BME280;56457;52.190;4.440;2023-05-03T00:05:47;103093.25;;;6.64;100.00
69318;BME280;56457;52.190;4.440;2023-05-03T00:06:47;103091.47;;;6.63;100.00
69318;BME280;56457;52.190;4.440;2023-05-03T00:07:48;103096.75;;;6.64;100.00
69318;BME280;56457;52.190;4.440;2023-05-03T00:08:48;103095.78;;;6.62;100.00
69318;BME280;56457;52.190;4.440;2023-05-03T00:09:48;103093.94;;;6.60;100.00
69318;BME280;56457;52.190;4.440;2023-05-03T00:10:49;103099.91;;;6.57;100.00
69318;BME280;56457;52.190;4.440;2023-05-03T00:11:49;103096.41;;;6.57;100.00
69318;BME280;56457;52.190;4.440;2023-05-03T00:12:50;103098.06;;;6.55;100.00
69318;BME280;56457;52.190;4.440;2023-05-03T00:13:50;103094.63;;;6.56;100.00
69318;BME280;56457;52.190;4.440;2023-05-03T00:14:50;103094.69;;;6.57;100.00
69318;BME280;56457;52.190;4.440;2023-05-03T00:15:50;103095.53;;;6.56;100.00
69318;BME280;56457;52.190;4.440;2023-05-03T00:16:51;103087.69;;;6.56;100.00
69318;BME280;56457;52.190;4.440;2023-05-03T00:17:51;103093.84;;;6.58;100.00
69318;BME280;56457;52.190;4.440;2023-05-03T00:18:51;103097.19;;;6.54;100.00
69318;BME280;56457;52.190;4.440;2023-05-03T00:19:52;103094.56;;;6.54;100.00
69318;BME280;56457;52.190;4.440;2023-05-03T00:20:54;103092.84;;;6.55;100.00
69318;BME280;56457;52.190;4.440;2023-05-03T00:21:56;103097.19;;;6.54;100.00
69318;BME280;56457;52.190;4.440;2023-05-03T00:22:56;103094.50;;;6.53;100.00
69318;BME280;56457;52.190;4.440;2023-05-03T00:23:56;103089.13;;;6.50;100.00
69318;BME280;56457;52.190;4.440;2023-05-03T00:24:57;103091.91;;;6.53;100.00
69318;BME280;56457;52.190;4.440;2023-05-03T00:25:58;103092.69;;;6.52;100.00
69318;BME280;56457;52.190;4.440;2023-05-03T00:26:58;103097.03;;;6.51;100.00
69318;BME280;56457;52.190;4.440;2023-05-03T00:27:58;103093.69;;;6.54;100.00
69318;BME280;56457;52.190;4.440;2023-05-03T00:28:59;103091.06;;;6.54;100.00
69318;BME280;56457;52.190;4.440;2023-05-03T00:30:00;103097.91;;;6.52;100.00
69318;BME280;56457;52.190;4.440;2023-05-03T00:31:06;103091.91;;;6.53;100.00
69318;BME280;56457;52.190;4.440;2023-05-03T00:32:07;103091.97;;;6.54;100.00
69318;BME280;56457;52.190;4.440;2023-05-03T00:33:09;103098.97;;;6.55;100.00
69318;BME280;56457;52.190;4.440;2023-05-03T00:34:09;103091.97;;;6.54;100.00
69318;BME280;56457;52.190;4.440;2023-05-03T00:35:10;103085.78;;;6.52;100.00
69318;BME280;56457;52.190;4.440;2023-05-03T00:36:11;103089.97;;;6.48;100.00
69318;BME280;56457;52.190;4.440;2023-05-03T00:37:11;103088.94;;;6.45;100.00
69318;BME280;56457;52.190;4.440;2023-05-03T00:38:12;103092.56;;;6.48;100.00
69318;BME280;56457;52.190;4.440;2023-05-03T00:39:15;103100.34;;;6.47;100.00
69318;BME280;56457;52.190;4.440;2023-05-03T00:40:15;103098.56;;;6.46;100.00
69318;BME280;56457;52.190;4.440;2023-05-03T00:41:17;103097.72;;;6.47;100.00
69318;BME280;56457;52.190;4.440;2023-05-03T00:42:18;103099.44;;;6.46;100.00
69318;BME280;56457;52.190;4.440;2023-05-03T00:43:18;103101.06;;;6.44;100.00
69318;BME280;56457;52.190;4.440;2023-05-03T00:44:19;103100.34;;;6.47;100.00
69318;BME280;56457;52.190;4.440;2023-05-03T00:45:19;103101.06;;;6.44;100.00
69318;BME280;56457;52.190;4.440;2023-05-03T00:46:19;103109.72;;;6.43;100.00
69318;BME280;56457;52.190;4.440;2023-05-03T00:47:20;103103.56;;;6.41;100.00
69318;BME280;56457;52.190;4.440;2023-05-03T00:48:21;103106.00;;;6.38;100.00
69318;BME280;56457;52.190;4.440;2023-05-03T00:49:23;103100.06;;;6.41;100.00
69318;BME280;56457;52.190;4.440;2023-05-03T00:50:24;103108.72;;;6.40;100.00
69318;BME280;56457;52.190;4.440;2023-05-03T00:51:25;103114.00;;;6.41;100.00
69318;BME280;56457;52.190;4.440;2023-05-03T00:52:26;103108.72;;;6.40;100.00
69318;BME280;56457;52.190;4.440;2023-05-03T00:53:27;103109.59;;;6.40;100.00
69318;BME280;56457;52.190;4.440;2023-05-03T00:54:28;103110.50;;;6.41;100.00
69318;BME280;56457;52.190;4.440;2023-05-03T00:55:28;103110.56;;;6.42;100.00
69318;BME280;56457;52.190;4.440;2023-05-03T00:56:30;103106.22;;;6.43;100.00
69318;BME280;56457;52.190;4.440;2023-05-03T00:57:31;103112.34;;;6.43;100.00
69318;BME280;56457;52.190;4.440;2023-05-03T00:58:32;103109.59;;;6.40;100.00
69318;BME280;56457;52.190;4.440;2023-05-03T00:59:39;103109.31;;;6.34;100.00
69318;BME280;56457;52.190;4.440;2023-05-03T01:00:39;103116.09;;;6.31;100.00
69318;BME280;56457;52.190;4.440;2023-05-03T01:01:39;103109.16;;;6.31;100.00
69318;BME280;56457;52.190;4.440;2023-05-03T01:02:40;103112.59;;;6.30;100.00
69318;BME280;56457;52.190;4.440;2023-05-03T01:03:40;103111.94;;;6.34;100.00
69318;BME280;56457;52.190;4.440;2023-05-03T01:04:41;103115.28;;;6.32;100.00
69318;BME280;56457;52.190;4.440;2023-05-03T01:06:07;103111.78;;;6.31;100.00
69318;BME280;56457;52.190;4.440;2023-05-03T01:07:11;103110.75;;;6.28;100.00
69318;BME280;56457;52.190;4.440;2023-05-03T01:10:45;103107.94;;;6.23;100.00
69318;BME280;56457;52.190;4.440;2023-05-03T01:16:34;103104.44;;;6.23;100.00
69318;BME280;56457;52.190;4.440;2023-05-03T01:17:38;103100.78;;;6.19;100.00
69318;BME280;56457;52.190;4.440;2023-05-03T01:18:39;103101.59;;;6.18;100.00
69318;BME280;56457;52.190;4.440;2023-05-03T01:19:43;103094.41;;;6.12;100.00
69318;BME280;56457;52.190;4.440;2023-05-03T01:20:46;103093.38;;;6.09;100.00
69318;BME280;56457;52.190;4.440;2023-05-03T01:21:48;103093.44;;;6.10;100.00
69318;BME280;56457;52.190;4.440;2023-05-03T01:23:59;103096.19;;;6.13;100.00
69318;BME280;56457;52.190;4.440;2023-05-03T01:27:19;103093.66;;;6.15;100.00
69318;BME280;56457;52.190;4.440;2023-05-03T01:28:20;103092.56;;;6.10;100.00
69318;BME280;56457;52.190;4.440;2023-05-03T01:29:20;103098.66;;;6.10;100.00
69318;BME280;56457;52.190;4.440;2023-05-03T01:30:21;103098.72;;;6.12;100.00
69318;BME280;56457;52.190;4.440;2023-05-03T01:32:25;103094.34;;;6.11;100.00
69318;BME280;56457;52.190;4.440;2023-05-03T01:33:39;103087.19;;;6.07;100.00
69318;BME280;56457;52.190;4.440;2023-05-03T01:34:49;103083.03;;;6.10;100.00
69318;BME280;56457;52.190;4.440;2023-05-03T01:35:56;103081.25;;;6.09;100.00
69318;BME280;56457;52.190;4.440;2023-05-03T01:36:59;103081.16;;;6.08;100.00
69318;BME280;56457;52.190;4.440;2023-05-03T01:38:02;103083.91;;;6.11;100.00
69318;BME280;56457;52.190;4.440;2023-05-03T01:39:05;103076.91;;;6.10;100.00
69318;BME280;56457;52.190;4.440;2023-05-03T01:40:07;103075.88;;;6.06;100.00
69318;BME280;56457;52.190;4.440;2023-05-03T01:41:09;103076.69;;;6.05;100.00
69318;BME280;56457;52.190;4.440;2023-05-03T01:42:10;103075.81;;;6.05;100.00
69318;BME280;56457;52.190;4.440;2023-05-03T01:43:11;103074.03;;;6.04;100.00
69318;BME280;56457;52.190;4.440;2023-05-03T01:44:12;103072.31;;;6.04;100.00
69318;BME280;56457;52.190;4.440;2023-05-03T01:45:12;103072.38;;;6.06;100.00
69318;BME280;56457;52.190;4.440;2023-05-03T01:46:13;103068.81;;;6.04;100.00
69318;BME280;56457;52.190;4.440;2023-05-03T01:47:14;103065.31;;;6.03;100.00
69318;BME280;56457;52.190;4.440;2023-05-03T01:48:16;103066.06;;;6.01;100.00
69318;BME280;56457;52.190;4.440;2023-05-03T01:49:17;103057.94;;;5.94;100.00
69318;BME280;56457;52.190;4.440;2023-05-03T01:50:17;103058.78;;;5.93;100.00
69318;BME280;56457;52.190;4.440;2023-05-03T01:51:17;103055.34;;;5.94;100.00
69318;BME280;56457;52.190;4.440;2023-05-03T01:52:17;103050.97;;;5.93;100.00
69318;BME280;56457;52.190;4.440;2023-05-03T01:53:18;103050.28;;;5.98;100.00
69318;BME280;56457;52.190;4.440;2023-05-03T01:54:19;103047.88;;;6.02;100.00
69318;BME280;56457;52.190;4.440;2023-05-03T01:55:19;103044.59;;;6.06;100.00
69318;BME280;56457;52.190;4.440;2023-05-03T01:56:19;103044.47;;;6.03;100.00
69318;BME280;56457;52.190;4.440;2023-05-03T01:57:20;103042.59;;;6.01;100.00
69318;BME280;56457;52.190;4.440;2023-05-03T01:58:20;103039.88;;;5.98;100.00
69318;BME280;56457;52.190;4.440;2023-05-03T01:59:21;103028.56;;;5.97;100.00
69318;BME280;56457;52.190;4.440;2023-05-03T02:00:21;103032.78;;;5.95;100.00
69318;BME280;56457;52.190;4.440;2023-05-03T02:01:21;103028.56;;;5.97;100.00
69318;BME280;56457;52.190;4.440;2023-05-03T02:02:21;103020.81;;;5.99;100.00
69318;BME280;56457;52.190;4.440;2023-05-03T02:03:22;103024.91;;;5.93;100.00
69318;BME280;56457;52.190;4.440;2023-05-03T02:04:22;103028.34;;;5.92;100.00
69318;BME280;56457;52.190;4.440;2023-05-03T02:05:22;103019.75;;;5.95;100.00
69318;BME280;56457;52.190;4.440;2023-05-03T02:06:23;103023.13;;;5.92;100.00
69318;BME280;56457;52.190;4.440;2023-05-03T02:07:24;103020.59;;;5.94;100.00
69318;BME280;56457;52.190;4.440;2023-05-03T02:08:24;103022.31;;;5.93;100.00
69318;BME280;56457;52.190;4.440;2023-05-03T02:09:25;103023.19;;;5.94;100.00
69318;BME280;56457;52.190;4.440;2023-05-03T02:10:25;103019.84;;;5.97;100.00
69318;BME280;56457;52.190;4.440;2023-05-03T02:11:25;103033.63;;;5.94;100.00
69318;BME280;56457;52.190;4.440;2023-05-03T02:12:26;103037.94;;;5.93;100.00
69318;BME280;56457;52.190;4.440;2023-05-03T02:13:26;103031.22;;;5.99;100.00
69318;BME280;56457;52.190;4.440;2023-05-03T02:14:26;103039.31;;;6.05;100.00
69318;BME280;56457;52.190;4.440;2023-05-03T02:15:26;103043.66;;;6.04;100.00
69318;BME280;56457;52.190;4.440;2023-05-03T02:16:27;103045.38;;;6.04;100.00
69318;BME280;56457;52.190;4.440;2023-05-03T02:17:28;103041.88;;;6.03;100.00
69318;BME280;56457;52.190;4.440;2023-05-03T02:18:28;103048.25;;;6.10;100.00
69318;BME280;56457;52.190;4.440;2023-05-03T02:19:30;103049.19;;;6.12;100.00
69318;BME280;56457;52.190;4.440;2023-05-03T02:20:30;103047.53;;;6.14;100.00
69318;BME280;56457;52.190;4.440;2023-05-03T02:21:36;103053.81;;;6.17;100.00
69318;BME280;56457;52.190;4.440;2023-05-03T02:22:36;103049.41;;;6.16;100.00
69318;BME280;56457;52.190;4.440;2023-05-03T02:23:36;103043.16;;;6.13;100.00
69318;BME280;56457;52.190;4.440;2023-05-03T02:24:37;103048.31;;;6.11;100.00
69318;BME280;56457;52.190;4.440;2023-05-03T02:25:39;103047.47;;;6.12;100.00
69318;BME280;56457;52.190;4.440;2023-05-03T02:26:39;103052.75;;;6.14;100.00
69318;BME280;56457;52.190;4.440;2023-05-03T02:27:40;103058.84;;;6.14;100.00
69318;BME280;56457;52.190;4.440;2023-05-03T02:28:40;103049.25;;;6.13;100.00
69318;BME280;56457;52.190;4.440;2023-05-03T02:29:40;103050.84;;;6.10;100.00
69318;BME280;56457;52.190;4.440;2023-05-03T02:30:41;103055.97;;;6.08;100.00
69318;BME280;56457;52.190;4.440;2023-05-03T02:31:41;103061.28;;;6.10;100.00
69318;BME280;56457;52.190;4.440;2023-05-03T02:32:41;103065.66;;;6.11;100.00
69318;BME280;56457;52.190;4.440;2023-05-03T02:33:42;103065.72;;;6.12;100.00
69318;BME280;56457;52.190;4.440;2023-05-03T02:34:43;103063.13;;;6.12;100.00
69318;BME280;56457;52.190;4.440;2023-05-03T02:35:43;103066.50;;;6.10;100.00
69318;BME280;56457;52.190;4.440;2023-05-03T02:36:43;103064.84;;;6.12;100.00
69318;BME280;56457;52.190;4.440;2023-05-03T02:37:44;103061.41;;;6.13;100.00
69318;BME280;56457;52.190;4.440;2023-05-03T02:38:44;103061.19;;;6.08;100.00
69318;BME280;56457;52.190;4.440;2023-05-03T02:39:44;103058.47;;;6.05;100.00
69318;BME280;56457;52.190;4.440;2023-05-03T02:40:44;103060.84;;;6.01;100.00
69318;BME280;56457;52.190;4.440;2023-05-03T02:41:45;103068.66;;;6.01;100.00
69318;BME280;56457;52.190;4.440;2023-05-03T02:42:45;103074.41;;;5.93;100.00
69318;BME280;56457;52.190;4.440;2023-05-03T02:43:45;103071.88;;;5.95;100.00
69318;BME280;56457;52.190;4.440;2023-05-03T02:44:46;103065.03;;;5.97;100.00
69318;BME280;56457;52.190;4.440;2023-05-03T02:45:46;103067.72;;;5.99;100.00
69318;BME280;56457;52.190;4.440;2023-05-03T02:46:46;103069.66;;;6.03;100.00
69318;BME280;56457;52.190;4.440;2023-05-03T02:47:47;103062.84;;;6.06;100.00
69318;BME280;56457;52.190;4.440;2023-05-03T02:48:47;103062.84;;;6.06;100.00
69318;BME280;56457;52.190;4.440;2023-05-03T02:49:47;103066.28;;;6.05;100.00
69318;BME280;56457;52.190;4.440;2023-05-03T02:50:48;103064.56;;;6.06;100.00
69318;BME280;56457;52.190;4.440;2023-05-03T02:51:48;103068.81;;;6.04;100.00
69318;BME280;56457;52.190;4.440;2023-05-03T02:52:48;103066.00;;;5.99;100.00
69318;BME280;56457;52.190;4.440;2023-05-03T02:53:48;103065.09;;;5.99;100.00
69318;BME280;56457;52.190;4.440;2023-05-03T02:54:49;103063.22;;;5.96;100.00
69318;BME280;56457;52.190;4.440;2023-05-03T02:55:49;103064.00;;;5.93;100.00
69318;BME280;56457;52.190;4.440;2023-05-03T02:56:49;103070.03;;;5.92;100.00
69318;BME280;56457;52.190;4.440;2023-05-03T02:57:50;103070.91;;;5.93;100.00
69318;BME280;56457;52.190;4.440;2023-05-03T02:58:50;103073.53;;;5.93;100.00
69318;BME280;56457;52.190;4.440;2023-05-03T02:59:51;103076.84;;;5.90;100.00
69318;BME280;56457;52.190;4.440;2023-05-03T03:00:51;103076.75;;;5.89;100.00
69318;BME280;56457;52.190;4.440;2023-05-03T03:01:51;103079.47;;;5.90;100.00
69318;BME280;56457;52.190;4.440;2023-05-03T03:02:52;103068.94;;;5.89;100.00
69318;BME280;56457;52.190;4.440;2023-05-03T03:03:52;103079.56;;;5.92;100.00
69318;BME280;56457;52.190;4.440;2023-05-03T03:04:52;103083.69;;;5.88;100.00
69318;BME280;56457;52.190;4.440;2023-05-03T03:05:52;103082.50;;;5.82;100.00
69318;BME280;56457;52.190;4.440;2023-05-03T03:06:53;103089.50;;;5.83;100.00
69318;BME280;56457;52.190;4.440;2023-05-03T03:07:53;103095.81;;;5.88;100.00
69318;BME280;56457;52.190;4.440;2023-05-03T03:08:54;103101.03;;;5.88;100.00
69318;BME280;56457;52.190;4.440;2023-05-03T03:09:54;103095.75;;;5.86;100.00
69318;BME280;56457;52.190;4.440;2023-05-03T03:10:54;103096.34;;;5.81;100.00
69318;BME280;56457;52.190;4.440;2023-05-03T03:11:55;103099.03;;;5.82;100.00
69318;BME280;56457;52.190;4.440;2023-05-03T03:12:55;103096.41;;;5.82;100.00
69318;BME280;56457;52.190;4.440;2023-05-03T03:13:55;103090.19;;;5.79;100.00
69318;BME280;56457;52.190;4.440;2023-05-03T03:14:56;103091.00;;;5.78;100.00
69318;BME280;56457;52.190;4.440;2023-05-03T03:15:56;103097.91;;;5.77;100.00
69318;BME280;56457;52.190;4.440;2023-05-03T03:16:56;103090.25;;;5.80;100.00
69318;BME280;56457;52.190;4.440;2023-05-03T03:17:57;103089.38;;;5.80;100.00
69318;BME280;56457;52.190;4.440;2023-05-03T03:18:57;103094.06;;;5.69;100.00
69318;BME280;56457;52.190;4.440;2023-05-03T03:19:57;103087.66;;;5.62;100.00
69318;BME280;56457;52.190;4.440;2023-05-03T03:20:58;103087.28;;;5.55;100.00
69318;BME280;56457;52.190;4.440;2023-05-03T03:21:58;103086.41;;;5.54;100.00
69318;BME280;56457;52.190;4.440;2023-05-03T03:22:58;103092.56;;;5.56;100.00
69318;BME280;56457;52.190;4.440;2023-05-03T03:23:58;103088.13;;;5.54;100.00
69318;BME280;56457;52.190;4.440;2023-05-03T03:24:59;103092.63;;;5.58;100.00
69318;BME280;56457;52.190;4.440;2023-05-03T03:25:59;103088.56;;;5.63;100.00
69318;BME280;56457;52.190;4.440;2023-05-03T03:27:00;103091.22;;;5.64;100.00
69318;BME280;56457;52.190;4.440;2023-05-03T03:28:00;103086.69;;;5.60;100.00
69318;BME280;56457;52.190;4.440;2023-05-03T03:29:00;103091.75;;;5.57;100.00
69318;BME280;56457;52.190;4.440;2023-05-03T03:30:01;103089.97;;;5.56;100.00
69318;BME280;56457;52.190;4.440;2023-05-03T03:31:01;103088.25;;;5.57;100.00
69318;BME280;56457;52.190;4.440;2023-05-03T03:32:01;103090.19;;;5.61;100.00
69318;BME280;56457;52.190;4.440;2023-05-03T03:33:01;103093.81;;;5.64;100.00
69318;BME280;56457;52.190;4.440;2023-05-03T03:34:02;103090.19;;;5.61;100.00
69318;BME280;56457;52.190;4.440;2023-05-03T03:35:02;103098.84;;;5.60;100.00
69318;BME280;56457;52.190;4.440;2023-05-03T03:36:02;103093.75;;;5.63;100.00
69318;BME280;56457;52.190;4.440;2023-05-03T03:37:05;103098.25;;;5.65;100.00
69318;BME280;56457;52.190;4.440;2023-05-03T03:38:06;103094.66;;;5.63;100.00
69318;BME280;56457;52.190;4.440;2023-05-03T03:39:06;103096.44;;;5.64;100.00
69318;BME280;56457;52.190;4.440;2023-05-03T03:40:06;103092.03;;;5.63;100.00
69318;BME280;56457;52.190;4.440;2023-05-03T03:41:07;103101.63;;;5.64;100.00
69318;BME280;56457;52.190;4.440;2023-05-03T03:42:09;103108.34;;;5.59;100.00
69318;BME280;56457;52.190;4.440;2023-05-03T03:43:09;103105.59;;;5.56;100.00
69318;BME280;56457;52.190;4.440;2023-05-03T03:44:10;103118.47;;;5.53;100.00
69318;BME280;56457;52.190;4.440;2023-05-03T03:45:10;103107.31;;;5.56;100.00
69318;BME280;56457;52.190;4.440;2023-05-03T03:46:10;103100.44;;;5.58;100.00
69318;BME280;56457;52.190;4.440;2023-05-03T03:47:11;103107.84;;;5.66;100.00
69318;BME280;56457;52.190;4.440;2023-05-03T03:48:11;103108.84;;;5.70;100.00
69318;BME280;56457;52.190;4.440;2023-05-03T03:49:11;103099.44;;;5.72;100.00
69318;BME280;56457;52.190;4.440;2023-05-03T03:50:12;103109.97;;;5.75;100.00
69318;BME280;56457;52.190;4.440;2023-05-03T03:51:12;103103.88;;;5.75;100.00
69318;BME280;56457;52.190;4.440;2023-05-03T03:52:12;103104.47;;;5.69;100.00
69318;BME280;56457;52.190;4.440;2023-05-03T03:53:12;103107.31;;;5.56;100.00
69318;BME280;56457;52.190;4.440;2023-05-03T03:54:13;103106.13;;;5.49;100.00
69318;BME280;56457;52.190;4.440;2023-05-03T03:55:13;103120.84;;;5.49;100.00
69318;BME280;56457;52.190;4.440;2023-05-03T03:56:13;103117.19;;;5.45;100.00
69318;BME280;56457;52.190;4.440;2023-05-03T03:57:14;103120.69;;;5.46;100.00
69318;BME280;56457;52.190;4.440;2023-05-03T03:58:14;103124.34;;;5.49;100.00
69318;BME280;56457;52.190;4.440;2023-05-03T03:59:14;103118.53;;;5.55;100.00
69318;BME280;56457;52.190;4.440;2023-05-03T04:00:15;103120.47;;;5.59;100.00
69318;BME280;56457;52.190;4.440;2023-05-03T04:01:15;103122.94;;;5.56;100.00
69318;BME280;56457;52.190;4.440;2023-05-03T04:02:16;103126.19;;;5.52;100.00
69318;BME280;56457;52.190;4.440;2023-05-03T04:03:16;103127.31;;;5.57;100.00
69318;BME280;56457;52.190;4.440;2023-05-03T04:04:16;103127.25;;;5.55;100.00
69318;BME280;56457;52.190;4.440;2023-05-03T04:05:17;103131.19;;;5.47;100.00
69318;BME280;56457;52.190;4.440;2023-05-03T04:06:17;103127.69;;;5.47;100.00
69318;BME280;56457;52.190;4.440;2023-05-03T04:07:17;103128.00;;;5.53;100.00
69318;BME280;56457;52.190;4.440;2023-05-03T04:08:18;103128.28;;;5.59;100.00
69318;BME280;56457;52.190;4.440;2023-05-03T04:09:18;103124.63;;;5.55;100.00
69318;BME280;56457;52.190;4.440;2023-05-03T04:10:18;103127.69;;;5.47;100.00
69318;BME280;56457;52.190;4.440;2023-05-03T04:11:19;103132.91;;;5.47;100.00
69318;BME280;56457;52.190;4.440;2023-05-03T04:12:20;103127.41;;;5.40;100.00
69318;BME280;56457;52.190;4.440;2023-05-03T04:13:20;103127.41;;;5.40;100.00
69318;BME280;56457;52.190;4.440;2023-05-03T04:14:21;103126.25;;;5.35;100.00
69318;BME280;56457;52.190;4.440;2023-05-03T04:15:21;103130.34;;;5.30;100.00
69318;BME280;56457;52.190;4.440;2023-05-03T04:16:21;103126.91;;;5.31;100.00
69318;BME280;56457;52.190;4.440;2023-05-03T04:17:22;103123.25;;;5.28;100.00
69318;BME280;56457;52.190;4.440;2023-05-03T04:18:22;103122.28;;;5.26;100.00
69318;BME280;56457;52.190;4.440;2023-05-03T04:19:23;103114.34;;;5.23;100.00
69318;BME280;56457;52.190;4.440;2023-05-03T04:20:24;103116.84;;;5.21;100.00
69318;BME280;56457;52.190;4.440;2023-05-03T04:21:24;103116.72;;;5.18;100.00
69318;BME280;56457;52.190;4.440;2023-05-03T04:22:24;103119.38;;;5.20;100.00
69318;BME280;56457;52.190;4.440;2023-05-03T04:23:25;103114.09;;;5.18;100.00
69318;BME280;56457;52.190;4.440;2023-05-03T04:24:25;103120.97;;;5.16;100.00
69318;BME280;56457;52.190;4.440;2023-05-03T04:25:30;103117.16;;;5.27;100.00
69318;BME280;56457;52.190;4.440;2023-05-03T04:26:31;103115.84;;;5.35;100.00
69318;BME280;56457;52.190;4.440;2023-05-03T04:27:31;103118.66;;;5.40;100.00
69318;BME280;56457;52.190;4.440;2023-05-03T04:28:33;103120.38;;;5.39;100.00
69318;BME280;56457;52.190;4.440;2023-05-03T04:29:33;103112.66;;;5.41;100.00
69318;BME280;56457;52.190;4.440;2023-05-03T04:30:33;103113.69;;;5.45;100.00
69318;BME280;56457;52.190;4.440;2023-05-03T04:31:34;103113.63;;;5.43;100.00
69318;BME280;56457;52.190;4.440;2023-05-03T04:32:35;103117.94;;;5.43;100.00
69318;BME280;56457;52.190;4.440;2023-05-03T04:33:39;103118.75;;;5.42;100.00
69318;BME280;56457;52.190;4.440;2023-05-03T04:34:39;103113.56;;;5.42;100.00
69318;BME280;56457;52.190;4.440;2023-05-03T04:35:41;103115.25;;;5.41;100.00
69318;BME280;56457;52.190;4.440;2023-05-03T04:36:41;103116.88;;;5.39;100.00
69318;BME280;56457;52.190;4.440;2023-05-03T04:37:42;103113.09;;;5.32;100.00
69318;BME280;56457;52.190;4.440;2023-05-03T04:38:42;103113.59;;;5.25;100.00
69318;BME280;56457;52.190;4.440;2023-05-03T04:39:42;103113.53;;;5.24;100.00
69318;BME280;56457;52.190;4.440;2023-05-03T04:40:44;103118.56;;;5.21;100.00
69318;BME280;56457;52.190;4.440;2023-05-03T04:41:45;103116.94;;;5.23;100.00
69318;BME280;56457;52.190;4.440;2023-05-03T04:42:45;103128.38;;;5.26;100.00
69318;BME280;56457;52.190;4.440;2023-05-03T04:43:46;103119.88;;;5.29;100.00
69318;BME280;56457;52.190;4.440;2023-05-03T04:44:46;103119.19;;;5.33;100.00
69318;BME280;56457;52.190;4.440;2023-05-03T04:45:46;103126.47;;;5.40;100.00
69318;BME280;56457;52.190;4.440;2023-05-03T04:46:47;103130.19;;;5.45;100.00
69318;BME280;56457;52.190;4.440;2023-05-03T04:47:47;103123.59;;;5.52;100.00
69318;BME280;56457;52.190;4.440;2023-05-03T04:48:48;103121.97;;;5.54;100.00
69318;BME280;56457;52.190;4.440;2023-05-03T04:49:48;103112.44;;;5.54;100.00
69318;BME280;56457;52.190;4.440;2023-05-03T04:50:48;103123.75;;;5.55;100.00
69318;BME280;56457;52.190;4.440;2023-05-03T04:51:51;103124.72;;;5.57;100.00
69318;BME280;56457;52.190;4.440;2023-05-03T04:52:51;103124.41;;;5.51;100.00
69318;BME280;56457;52.190;4.440;2023-05-03T04:53:51;103122.56;;;5.48;100.00
69318;BME280;56457;52.190;4.440;2023-05-03T04:54:51;103126.78;;;5.46;100.00
69318;BME280;56457;52.190;4.440;2023-05-03T04:55:52;103124.41;;;5.51;100.00
69318;BME280;56457;52.190;4.440;2023-05-03T04:56:52;103120.38;;;5.57;100.00
69318;BME280;56457;52.190;4.440;2023-05-03T04:57:53;103125.84;;;5.62;100.00
69318;BME280;56457;52.190;4.440;2023-05-03T04:58:54;103118.97;;;5.64;100.00
69318;BME280;56457;52.190;4.440;2023-05-03T04:59:54;103118.97;;;5.64;100.00
69318;BME280;56457;52.190;4.440;2023-05-03T05:00:55;103123.47;;;5.66;100.00
69318;BME280;56457;52.190;4.440;2023-05-03T05:01:55;103126.06;;;5.66;100.00
69318;BME280;56457;52.190;4.440;2023-05-03T05:02:55;103120.84;;;5.66;100.00
69318;BME280;56457;52.190;4.440;2023-05-03T05:03:57;103123.34;;;5.65;100.00
69318;BME280;56457;52.190;4.440;2023-05-03T05:04:58;103116.47;;;5.65;100.00
69318;BME280;56457;52.190;4.440;2023-05-03T05:05:58;103117.56;;;5.71;100.00
69318;BME280;56457;52.190;4.440;2023-05-03T05:06:58;103121.16;;;5.73;100.00
69318;BME280;56457;52.190;4.440;2023-05-03T05:07:59;103119.44;;;5.73;100.00
69318;BME280;56457;52.190;4.440;2023-05-03T05:08:59;103125.59;;;5.75;100.00
69318;BME280;56457;52.190;4.440;2023-05-03T05:09:59;103120.25;;;5.72;100.00
69318;BME280;56457;52.190;4.440;2023-05-03T05:11:00;103127.09;;;5.70;100.00
69318;BME280;56457;52.190;4.440;2023-05-03T05:12:01;103132.88;;;5.64;100.00
69318;BME280;56457;52.190;4.440;2023-05-03T05:13:03;103130.50;;;5.69;100.00
69318;BME280;56457;52.190;4.440;2023-05-03T05:14:03;103131.63;;;5.74;100.00
69318;BME280;56457;52.190;4.440;2023-05-03T05:15:03;103126.56;;;5.77;100.00
69318;BME280;56457;52.190;4.440;2023-05-03T05:16:04;103125.16;;;5.84;100.00
69318;BME280;56457;52.190;4.440;2023-05-03T05:17:04;103126.44;;;5.92;100.00
69318;BME280;56457;52.190;4.440;2023-05-03T05:18:05;103122.38;;;5.97;100.00
69318;BME280;56457;52.190;4.440;2023-05-03T05:19:05;103125.03;;;5.99;100.00
69318;BME280;56457;52.190;4.440;2023-05-03T05:20:05;103127.03;;;6.04;100.00
69318;BME280;56457;52.190;4.440;2023-05-03T05:21:07;103126.34;;;6.08;100.00
69318;BME280;56457;52.190;4.440;2023-05-03T05:22:07;103127.25;;;6.09;100.00
69318;BME280;56457;52.190;4.440;2023-05-03T05:23:07;103129.31;;;6.16;100.00
69318;BME280;56457;52.190;4.440;2023-05-03T05:24:07;103137.22;;;6.17;100.00
69318;BME280;56457;52.190;4.440;2023-05-03T05:25:08;103136.44;;;6.20;100.00
69318;BME280;56457;52.190;4.440;2023-05-03T05:26:08;103141.75;;;6.22;100.00
69318;BME280;56457;52.190;4.440;2023-05-03T05:27:09;103137.50;;;6.24;100.00
69318;BME280;56457;52.190;4.440;2023-05-03T05:28:09;103137.72;;;6.28;100.00
69318;BME280;56457;52.190;4.440;2023-05-03T05:29:10;103143.88;;;6.30;100.00
69318;BME280;56457;52.190;4.440;2023-05-03T05:30:10;103143.88;;;6.30;100.00